Time;durP1;ratioP1;P1;durP2;ratioP2;P2;SDS_P1;SDS_P2;PMS_P1;PMS_P2;Temp;Humidity;BMP_temperature;BMP_pressure;BME280_temperature;BME280_humidity;BME280_pressure;Samples;Min_cycle;Max_cycle;Signal;HPM_P1;HPM_P2
2023/07/02 00:01:39;;;;;;;22.58;13.65;;;14.40;99.90;;;13.82;100.00;101191.81;4186982;28;20029;-76
2023/07/02 00:03:40;;;;;;;22.45;12.57;;;14.40;99.90;;;13.82;100.00;101197.13;4169066;28;20072;-76
2023/07/02 00:05:41;;;;;;;21.83;13.30;;;14.40;99.90;;;13.82;100.00;101199.78;4169091;28;20493;-76
2023/07/02 00:07:42;;;;;;;22.67;13.90;;;14.30;99.90;;;13.69;100.00;101180.88;4169368;28;20026;-76
2023/07/02 00:09:43;;;;;;;22.42;12.98;;;14.30;99.90;;;13.76;100.00;101195.13;4186970;28;20036;-76
2023/07/02 00:11:45;;;;;;;24.65;13.50;;;14.30;99.90;;;13.75;100.00;101196.94;4186827;28;20036;-76
2023/07/02 00:13:46;;;;;;;21.58;12.80;;;14.30;99.90;;;13.75;100.00;101204.06;4186948;28;20442;-76
2023/07/02 00:15:47;;;;;;;22.73;12.20;;;14.30;99.90;;;13.71;100.00;101200.91;4186554;28;20033;-76
2023/07/02 00:17:48;;;;;;;23.50;13.65;;;14.30;99.90;;;13.70;100.00;101206.41;4169165;28;20119;-76
2023/07/02 00:19:51;;;;;;;24.00;13.35;;;14.30;99.90;;;13.70;100.00;101212.53;4168952;28;20049;-76
2023/07/02 00:21:53;;;;;;;24.35;13.25;;;14.20;99.90;;;13.67;100.00;101214.69;4168802;28;20022;-76
2023/07/02 00:23:58;;;;;;;20.27;13.13;;;14.20;99.90;;;13.64;100.00;101213.19;4156009;28;20014;-76
2023/07/02 00:25:59;;;;;;;24.35;12.27;;;14.20;99.90;;;13.65;100.00;101211.38;4186861;28;20024;-76
2023/07/02 00:28:00;;;;;;;19.13;11.52;;;14.10;99.90;;;13.60;100.00;101198.59;4168856;28;20025;-76
2023/07/02 00:30:00;;;;;;;21.70;11.98;;;14.10;99.90;;;13.59;100.00;101212.03;4152505;28;20110;-76
2023/07/02 00:32:02;;;;;;;25.45;12.07;;;14.10;99.90;;;13.55;100.00;101210.69;4186379;28;20025;-75
2023/07/02 00:34:04;;;;;;;23.85;12.48;;;14.10;99.90;;;13.52;100.00;101211.84;4152450;28;20042;-76
2023/07/02 00:36:05;;;;;;;22.38;11.95;;;14.10;99.90;;;13.48;100.00;101201.72;4186454;28;20031;-76
2023/07/02 00:38:05;;;;;;;24.48;11.55;;;14.10;99.90;;;13.52;100.00;101208.34;4168739;28;20032;-76
2023/07/02 00:40:08;;;;;;;20.83;11.50;;;14.10;99.90;;;13.52;100.00;101205.72;4186351;28;20076;-76
2023/07/02 00:42:11;;;;;;;25.10;11.80;;;14.10;99.90;;;13.50;100.00;101205.06;4186591;28;20021;-76
2023/07/02 00:44:13;;;;;;;19.63;10.60;;;14.00;99.90;;;13.46;100.00;101201.91;4186264;28;20021;-76
2023/07/02 00:46:25;;;;;;;18.15;10.38;;;14.00;99.90;;;13.48;100.00;101196.41;4185950;28;20032;-76
2023/07/02 00:48:26;;;;;;;21.27;11.63;;;14.00;99.90;;;13.47;100.00;101198.22;4186426;28;20025;-76
2023/07/02 00:50:27;;;;;;;18.13;11.30;;;14.00;99.90;;;13.44;100.00;101192.44;4186236;28;20090;-76
2023/07/02 00:52:28;;;;;;;20.95;11.48;;;14.00;99.90;;;13.43;100.00;101188.97;4152149;28;20122;-76
2023/07/02 00:54:30;;;;;;;22.92;11.65;;;14.00;99.90;;;13.48;100.00;101201.72;4168516;28;20053;-76
2023/07/02 00:56:31;;;;;;;19.98;11.45;;;14.00;99.90;;;13.46;100.00;101196.59;4186189;28;20100;-76
2023/07/02 00:58:37;;;;;;;16.80;11.00;;;14.00;99.90;;;13.45;100.00;101202.03;4186233;28;20040;-76
2023/07/02 01:00:38;;;;;;;22.63;11.70;;;14.00;99.90;;;13.38;100.00;101187.81;4168565;28;20087;-76
2023/07/02 01:02:43;;;;;;;25.65;11.30;;;14.00;99.90;;;13.42;100.00;101192.59;4185876;28;20435;-76
2023/07/02 01:04:49;;;;;;;25.15;13.07;;;14.00;99.90;;;13.43;100.00;101196.09;4201013;28;20090;-75
2023/07/02 01:06:50;;;;;;;21.48;11.27;;;14.00;99.90;;;13.46;100.00;101201.06;4184647;28;20032;-75
2023/07/02 01:09:04;;;;;;;23.08;12.40;;;14.00;99.90;;;13.44;100.00;101200.41;4201398;28;20028;-76
2023/07/02 01:11:05;;;;;;;25.23;12.02;;;14.00;99.90;;;13.45;100.00;101202.03;4184872;28;20029;-76
2023/07/02 01:13:14;;;;;;;26.77;11.90;;;14.00;99.90;;;13.46;100.00;101193.94;4184863;28;20037;-76
2023/07/02 01:15:15;;;;;;;23.02;11.32;;;14.10;99.90;;;13.52;100.00;101205.72;4200769;28;20024;-76
2023/07/02 01:17:18;;;;;;;25.77;11.73;;;14.10;99.90;;;13.49;100.00;101200.72;4185500;28;20040;-76
2023/07/02 01:19:51;;;;;;;29.73;12.55;;;14.10;99.90;;;13.49;100.00;101209.53;4168335;28;20101;-76
2023/07/02 01:21:52;;;;;;;22.67;11.63;;;14.10;99.90;;;13.46;100.00;101215.16;4185776;28;20029;-76
2023/07/02 01:23:53;;;;;;;28.52;13.45;;;14.10;99.90;;;13.44;100.00;101205.72;4200939;28;20020;-76
2023/07/02 01:25:54;;;;;;;21.52;11.98;;;14.00;99.90;;;13.47;100.00;101210.69;4168063;28;20035;-76
2023/07/02 01:27:55;;;;;;;25.10;12.27;;;14.10;99.90;;;13.43;100.00;101198.75;4168094;28;20025;-76
2023/07/02 01:29:56;;;;;;;26.75;12.02;;;14.00;99.90;;;13.36;100.00;101195.06;4168135;28;20489;-76
2023/07/02 01:31:57;;;;;;;24.42;12.88;;;14.00;99.90;;;13.32;100.00;101199.84;4185387;28;20054;-76
2023/07/02 01:33:58;;;;;;;24.20;12.27;;;14.00;99.90;;;13.40;100.00;101202.53;4185760;28;20492;-76
2023/07/02 01:35:59;;;;;;;26.95;13.00;;;14.00;99.90;;;13.42;100.00;101202.38;4185541;28;20024;-76
2023/07/02 01:38:00;;;;;;;27.80;13.18;;;14.00;99.90;;;13.42;100.00;101210.31;4185655;28;20617;-76
2023/07/02 01:40:01;;;;;;;30.13;13.40;;;14.00;99.90;;;13.40;100.00;101202.53;4167597;28;20029;-76
2023/07/02 01:42:14;;;;;;;29.33;13.55;;;14.00;99.90;;;13.25;100.00;101183.81;4167879;28;20026;-76
2023/07/02 01:44:15;;;;;;;25.98;12.20;;;14.00;99.90;;;13.22;100.00;101181.47;4168239;28;20029;-76
2023/07/02 01:46:16;;;;;;;28.00;12.82;;;14.00;99.90;;;13.31;100.00;101206.16;4167458;28;20408;-75
2023/07/02 01:48:17;;;;;;;35.65;12.77;;;13.90;99.90;;;13.27;100.00;101204.81;4185615;28;20052;-75
2023/07/02 01:50:17;;;;;;;32.28;12.80;;;13.90;99.90;;;13.26;100.00;101203.19;4167577;28;20396;-76
2023/07/02 01:52:18;;;;;;;35.40;13.80;;;13.90;99.90;;;13.19;100.00;101205.66;4168185;28;20026;-76
2023/07/02 01:54:21;;;;;;;27.85;14.88;;;13.90;99.90;;;13.22;100.00;101207.97;4167671;28;20067;-76
2023/07/02 01:56:22;;;;;;;25.55;13.48;;;13.90;99.90;;;13.15;100.00;101199.00;4185355;28;20074;-76
2023/07/02 01:58:22;;;;;;;34.60;11.70;;;13.80;99.90;;;13.19;100.00;101213.59;4200716;28;20060;-75
2023/07/02 02:00:24;;;;;;;27.48;12.40;;;13.80;99.90;;;13.20;100.00;101217.06;4185080;28;20050;-76
2023/07/02 02:02:25;;;;;;;26.80;12.00;;;13.80;99.90;;;13.13;100.00;101208.94;4167127;28;20366;-75
2023/07/02 02:04:26;;;;;;;32.60;13.48;;;13.80;99.90;;;13.14;100.00;101212.44;4200698;28;20039;-76
2023/07/02 02:06:27;;;;;;;27.77;12.68;;;13.80;99.90;;;13.14;100.00;101218.53;4183984;28;20592;-76
2023/07/02 02:08:28;;;;;;;31.77;12.60;;;13.80;99.90;;;13.13;100.00;101210.75;4185148;28;20024;-75
2023/07/02 02:10:29;;;;;;;31.75;13.23;;;13.80;99.90;;;13.10;100.00;101203.97;4185101;28;20497;-76
2023/07/02 02:12:31;;;;;;;30.80;13.65;;;13.80;99.90;;;13.15;100.00;101217.53;4185119;28;20052;-75
2023/07/02 02:14:32;;;;;;;31.45;13.02;;;13.80;99.90;;;13.14;100.00;101215.06;4185355;28;20056;-75
2023/07/02 02:16:36;;;;;;;29.25;12.68;;;13.80;99.90;;;13.13;100.00;101216.88;4184831;28;20055;-75
2023/07/02 02:18:37;;;;;;;29.23;13.70;;;13.80;99.90;;;13.11;100.00;101218.84;4184981;28;20445;-76
2023/07/02 02:20:38;;;;;;;26.67;12.43;;;13.70;99.90;;;13.12;100.00;101215.22;4167278;28;20091;-76
2023/07/02 02:22:39;;;;;;;22.88;12.13;;;13.70;99.90;;;13.09;100.00;101207.59;4184984;28;20480;-75
2023/07/02 02:24:40;;;;;;;24.05;11.90;;;13.70;99.90;;;13.08;100.00;101205.94;4184971;28;20055;-76
2023/07/02 02:26:41;;;;;;;31.20;14.02;;;13.70;99.90;;;13.10;100.00;101219.03;4200411;28;20051;-76
2023/07/02 02:28:42;;;;;;;24.98;12.63;;;13.70;99.90;;;13.07;100.00;101209.56;4185103;28;20113;-76
2023/07/02 02:30:43;;;;;;;35.33;13.20;;;13.70;99.90;;;13.08;100.00;101218.38;4184787;28;20043;-76
2023/07/02 02:32:44;;;;;;;27.10;13.68;;;13.70;99.90;;;13.04;100.00;101204.56;4185205;28;20029;-76
2023/07/02 02:34:45;;;;;;;29.25;11.68;;;13.60;99.90;;;12.96;100.00;101185.19;4167231;28;20041;-75
2023/07/02 02:36:47;;;;;;;20.38;11.48;;;13.70;99.90;;;13.07;100.00;101211.38;4185192;28;20065;-76
2023/07/02 02:38:48;;;;;;;28.13;13.15;;;13.60;99.90;;;13.03;100.00;101210.84;4184867;28;20041;-76
2023/07/02 02:40:48;;;;;;;27.90;12.18;;;13.60;99.90;;;13.03;100.00;101213.50;4151536;28;20030;-75
2023/07/02 02:42:49;;;;;;;24.70;11.98;;;13.60;99.90;;;12.96;100.00;101204.53;4184913;28;20021;-75
2023/07/02 02:44:50;;;;;;;27.40;13.27;;;13.60;99.90;;;12.91;100.00;101206.84;4167034;28;20029;-76
2023/07/02 02:46:51;;;;;;;29.17;14.05;;;13.50;99.90;;;12.95;100.00;101217.94;4167269;28;20485;-75
2023/07/02 02:48:52;;;;;;;22.33;11.85;;;13.50;99.90;;;12.82;100.00;101207.78;4150957;28;20030;-75
2023/07/02 02:50:53;;;;;;;26.52;11.77;;;13.50;99.90;;;12.89;100.00;101219.41;4150976;28;20026;-75
2023/07/02 02:52:54;;;;;;;28.38;11.77;;;13.50;99.90;;;12.81;100.00;101202.66;4184661;28;20489;-75
2023/07/02 02:54:54;;;;;;;23.20;11.65;;;13.50;99.90;;;12.83;100.00;101208.63;4167439;28;20056;-76
2023/07/02 02:56:55;;;;;;;29.35;13.63;;;13.40;99.90;;;12.82;100.00;101214.91;4185022;28;20051;-75
2023/07/02 02:58:56;;;;;;;26.23;13.63;;;13.40;99.90;;;12.77;100.00;101204.78;4183732;28;20033;-75
2023/07/02 03:00:57;;;;;;;35.75;14.30;;;13.40;99.90;;;12.70;100.00;101195.81;4184467;28;20492;-75
2023/07/02 03:02:59;;;;;;;31.42;14.60;;;13.40;99.90;;;12.74;100.00;101210.41;4184754;28;20024;-75
2023/07/02 03:05:02;;;;;;;32.58;14.00;;;13.30;99.90;;;12.75;100.00;101215.53;4183510;28;20531;-76
2023/07/02 03:07:03;;;;;;;28.00;13.25;;;13.40;99.90;;;12.70;100.00;101222.28;4167564;28;20025;-75
2023/07/02 03:09:04;;;;;;;31.77;13.05;;;13.30;99.90;;;12.72;100.00;101215.03;4184596;28;20088;-76
2023/07/02 03:11:05;;;;;;;27.10;12.32;;;13.30;99.90;;;12.71;100.00;101221.31;4150539;28;20064;-75
2023/07/02 03:13:06;;;;;;;30.45;13.38;;;13.30;99.90;;;12.66;100.00;101219.13;4167763;28;20028;-75
2023/07/02 03:15:08;;;;;;;28.92;14.63;;;13.30;99.90;;;12.61;100.00;101210.00;4157622;28;20029;-75
2023/07/02 03:17:08;;;;;;;29.40;13.48;;;13.30;99.90;;;12.67;100.00;101233.19;4187405;28;20527;-75
2023/07/02 03:19:09;;;;;;;22.77;12.80;;;13.20;99.90;;;12.65;100.00;101224.59;4169927;28;20036;-76
2023/07/02 03:21:10;;;;;;;30.15;12.85;;;13.30;99.90;;;12.62;100.00;101220.44;4171291;28;20060;-76
2023/07/02 03:23:11;;;;;;;26.10;13.02;;;13.20;99.90;;;12.59;100.00;101225.22;4169484;28;20064;-75
2023/07/02 03:25:12;;;;;;;27.90;12.95;;;13.20;99.90;;;12.59;100.00;101235.81;4169797;28;20028;-75
2023/07/02 03:27:13;;;;;;;28.17;13.25;;;13.20;99.90;;;12.58;100.00;101234.13;4171264;28;20132;-75
2023/07/02 03:29:16;;;;;;;27.38;12.93;;;13.20;99.90;;;12.52;100.00;101229.47;4169708;28;20026;-76
2023/07/02 03:31:16;;;;;;;33.45;13.95;;;13.20;99.90;;;12.51;100.00;101233.13;4170850;28;20037;-75
2023/07/02 03:33:17;;;;;;;30.63;13.05;;;13.10;99.90;;;12.53;100.00;101231.13;4169860;28;20040;-75
2023/07/02 03:35:18;;;;;;;26.63;12.43;;;13.10;99.90;;;12.53;100.00;101236.44;4171047;28;20440;-75
2023/07/02 03:37:19;;;;;;;27.63;13.82;;;13.10;99.90;;;12.54;100.00;101243.41;4170972;28;20026;-76
2023/07/02 03:39:20;;;;;;;32.30;13.93;;;13.10;99.90;;;12.55;100.00;101245.03;4169711;28;20049;-75
2023/07/02 03:41:21;;;;;;;21.40;12.60;;;13.10;99.90;;;12.51;100.00;101230.47;4171022;28;20025;-76
2023/07/02 03:43:22;;;;;;;28.85;13.13;;;13.10;99.90;;;12.48;100.00;101225.50;4169693;28;20029;-75
2023/07/02 03:45:23;;;;;;;35.17;13.50;;;13.10;99.90;;;12.61;100.00;101247.06;4170314;28;20076;-75
2023/07/02 03:47:23;;;;;;;27.45;12.80;;;13.10;99.90;;;12.60;100.00;101248.88;4170638;28;20396;-75
2023/07/02 03:49:24;;;;;;;31.75;13.70;;;13.20;99.90;;;12.57;100.00;101240.44;4169402;28;20036;-75
2023/07/02 03:51:25;;;;;;;26.75;13.88;;;13.20;99.90;;;12.59;100.00;101246.38;4186247;28;20029;-76
2023/07/02 03:53:26;;;;;;;28.98;12.50;;;13.20;99.90;;;12.56;100.00;101241.41;4170935;28;20053;-76
2023/07/02 03:55:27;;;;;;;34.00;14.38;;;13.20;99.90;;;12.59;100.00;101246.38;4169443;28;20153;-76
2023/07/02 03:57:28;;;;;;;26.33;12.82;;;13.20;99.90;;;12.56;100.00;101238.75;4169537;28;20100;-75
2023/07/02 03:59:29;;;;;;;30.42;12.73;;;13.20;99.90;;;12.51;100.00;101223.38;4170376;28;20076;-75
2023/07/02 04:01:30;;;;;;;29.00;14.38;;;13.20;99.90;;;12.60;100.00;101237.47;4170260;28;20018;-76
2023/07/02 04:03:31;;;;;;;30.13;13.10;;;13.20;99.90;;;12.64;100.00;101249.38;4169477;28;20029;-76
2023/07/02 04:05:31;;;;;;;31.52;15.60;;;13.20;99.90;;;12.61;100.00;101242.59;4169233;28;20076;-75
2023/07/02 04:07:32;;;;;;;33.08;14.25;;;13.20;99.90;;;12.67;100.00;101249.06;4152687;28;20030;-75
2023/07/02 04:09:33;;;;;;;35.75;14.32;;;13.20;99.90;;;12.68;100.00;101242.81;4169302;28;20060;-76
2023/07/02 04:11:34;;;;;;;36.15;14.48;;;13.30;99.90;;;12.73;100.00;101243.97;4169225;28;20555;-75
2023/07/02 04:13:35;;;;;;;29.65;13.52;;;13.30;99.90;;;12.73;100.00;101251.09;4169417;28;20026;-75
2023/07/02 04:15:36;;;;;;;36.88;14.02;;;13.30;99.90;;;12.74;100.00;101256.25;4168850;28;20033;-75
2023/07/02 04:17:37;;;;;;;28.13;14.13;;;13.30;99.90;;;12.77;100.00;101250.63;4169221;28;20037;-75
2023/07/02 04:19:38;;;;;;;28.27;14.43;;;13.40;99.90;;;12.81;100.00;101251.16;4176491;28;20393;-75
2023/07/02 04:21:38;;;;;;;36.97;13.45;;;13.40;99.90;;;12.78;100.00;101246.97;4186715;28;20075;-75
2023/07/02 04:23:39;;;;;;;28.55;13.43;;;13.40;99.90;;;12.78;100.00;101246.97;4168420;28;20026;-75
2023/07/02 04:25:40;;;;;;;27.83;12.75;;;13.40;99.90;;;12.83;100.00;101246.53;4169216;28;20025;-75
2023/07/02 04:27:42;;;;;;;27.67;13.10;;;13.40;99.90;;;12.78;100.00;101248.81;4186781;28;20029;-75
2023/07/02 04:29:44;;;;;;;31.10;13.38;;;13.40;99.90;;;12.77;100.00;101255.94;4168918;28;20397;-75
2023/07/02 04:31:45;;;;;;;33.80;14.90;;;13.40;99.90;;;12.81;100.00;101255.63;4152268;28;20033;-75
2023/07/02 04:33:46;;;;;;;28.88;14.63;;;13.40;99.90;;;12.81;100.00;101267.03;4168917;28;20037;-75
2023/07/02 04:35:47;;;;;;;32.20;13.60;;;13.40;99.90;;;12.77;100.00;101260.38;4168703;28;20124;-75
2023/07/02 04:37:48;;;;;;;32.00;15.45;;;13.40;99.90;;;12.85;100.00;101262.22;4168971;28;20036;-75
2023/07/02 04:39:49;;;;;;;32.08;14.05;;;13.40;99.90;;;12.87;100.00;101258.47;4186211;28;20029;-75
2023/07/02 04:41:52;;;;;;;27.15;14.32;;;13.40;99.90;;;12.90;100.00;101266.09;4186517;28;20075;-75
2023/07/02 04:43:53;;;;;;;30.20;15.27;;;13.50;99.90;;;12.92;100.00;101257.97;4168963;28;20022;-75
2023/07/02 04:45:54;;;;;;;33.25;15.73;;;13.50;99.90;;;12.98;100.00;101260.00;4168434;28;20072;-75
2023/07/02 04:47:55;;;;;;;31.45;14.35;;;13.50;99.90;;;13.11;100.00;101269.19;4186228;28;20105;-75
2023/07/02 04:49:56;;;;;;;35.65;15.68;;;13.60;99.90;;;13.18;100.00;101270.22;4186351;28;20404;-75
2023/07/02 04:51:57;;;;;;;35.80;16.13;;;13.70;99.90;;;13.18;100.00;101256.13;4168470;28;20032;-75
2023/07/02 04:53:58;;;;;;;31.48;15.73;;;13.80;99.90;;;13.30;100.00;101276.03;4186186;28;20493;-75
2023/07/02 04:55:59;;;;;;;28.15;15.10;;;13.80;99.90;;;13.27;100.00;101269.25;4186147;28;20021;-76
2023/07/02 04:57:59;;;;;;;30.08;14.73;;;13.80;99.90;;;13.29;100.00;101272.56;4168698;28;20025;-76
2023/07/02 05:00:00;;;;;;;31.55;14.38;;;13.80;99.90;;;13.27;100.00;101271.06;4168461;28;20095;-75
2023/07/02 05:02:01;;;;;;;28.40;15.50;;;13.80;99.90;;;13.21;100.00;101263.75;4151717;28;20061;-76
2023/07/02 05:04:02;;;;;;;40.15;17.02;;;13.80;99.90;;;13.22;100.00;101268.06;4185930;28;20504;-75
2023/07/02 05:06:03;;;;;;;35.30;17.02;;;13.80;99.90;;;13.25;100.00;101271.25;4168227;28;20112;-75
2023/07/02 05:08:04;;;;;;;36.72;15.70;;;13.80;99.90;;;13.26;100.00;101274.72;4152116;28;20085;-75
2023/07/02 05:10:05;;;;;;;30.60;14.20;;;13.90;99.90;;;13.28;100.00;101276.22;4185943;28;20036;-75
2023/07/02 05:12:07;;;;;;;34.55;15.60;;;13.90;99.90;;;13.29;100.00;101271.72;4186051;28;20036;-76
2023/07/02 05:14:08;;;;;;;30.23;15.00;;;13.90;99.90;;;13.35;100.00;101279.03;4185994;28;20032;-75
2023/07/02 05:16:10;;;;;;;35.05;14.75;;;13.90;99.90;;;13.37;100.00;101278.88;4154886;28;20410;-75
2023/07/02 05:18:11;;;;;;;28.95;14.23;;;13.90;99.90;;;13.40;100.00;101273.25;4185913;28;20017;-76
2023/07/02 05:20:12;;;;;;;29.63;14.80;;;14.00;99.90;;;13.43;100.00;101272.94;4167867;28;20099;-76
2023/07/02 05:22:13;;;;;;;35.50;14.40;;;14.00;99.90;;;13.50;100.00;101284.56;4168182;28;20028;-76
2023/07/02 05:24:14;;;;;;;33.72;15.02;;;14.00;99.90;;;13.51;100.00;101283.56;4185869;28;20029;-76
2023/07/02 05:26:15;;;;;;;33.45;14.88;;;14.10;99.90;;;13.60;100.00;101282.59;4185626;28;20036;-75
2023/07/02 05:28:16;;;;;;;32.08;16.55;;;14.10;99.90;;;13.67;100.00;101284.44;4185551;28;20029;-76
2023/07/02 05:30:17;;;;;;;31.13;14.82;;;14.20;99.90;;;13.67;100.00;101273.84;4184823;28;20025;-75
2023/07/02 05:32:17;;;;;;;35.05;15.68;;;14.20;99.90;;;13.73;100.00;101282.94;4168313;28;20091;-75
2023/07/02 05:34:18;;;;;;;31.55;16.27;;;14.30;99.90;;;13.74;100.00;101280.13;4190777;28;20021;-75
2023/07/02 05:36:20;;;;;;;30.50;14.63;;;14.30;99.90;;;13.74;100.00;101276.63;4195043;28;20036;-76
2023/07/02 05:38:21;;;;;;;39.95;16.10;;;14.40;99.90;;;13.86;100.00;101289.44;4185512;28;20114;-75
2023/07/02 05:40:22;;;;;;;33.00;14.82;;;14.40;99.90;;;13.96;100.00;101301.69;4167905;28;20033;-75
2023/07/02 05:42:23;;;;;;;25.60;14.77;;;14.40;99.90;;;13.99;100.00;101296.06;4167687;28;20022;-75
2023/07/02 05:44:24;;;;;;;27.67;13.65;;;14.50;99.90;;;14.06;100.00;101289.97;4185652;28;20032;-75
2023/07/02 05:46:25;;;;;;;27.38;14.52;;;14.50;99.90;;;14.05;100.00;101280.34;4185096;28;20049;-75
2023/07/02 05:48:27;;;;;;;27.35;14.65;;;14.60;99.90;;;14.17;100.00;101300.22;4167827;28;20114;-75
2023/07/02 05:50:28;;;;;;;30.15;15.77;;;14.60;99.90;;;14.20;100.00;101291.94;4185300;28;20029;-75
2023/07/02 05:52:29;;;;;;;30.52;15.32;;;14.70;99.90;;;14.28;100.00;101307.03;4167583;28;20033;-76
2023/07/02 05:54:29;;;;;;;30.10;14.82;;;14.70;99.90;;;14.27;100.00;101289.47;4184935;28;20036;-76
2023/07/02 05:56:30;;;;;;;35.30;16.23;;;14.80;99.90;;;14.35;100.00;101297.44;4167562;28;20060;-75
2023/07/02 05:58:31;;;;;;;31.23;15.93;;;14.80;99.90;;;14.40;100.00;101303.91;4167687;28;20033;-76
2023/07/02 06:00:32;;;;;;;29.65;14.82;;;14.90;99.90;;;14.46;100.00;101298.91;4184993;28;20044;-76
2023/07/02 06:02:33;;;;;;;37.25;14.90;;;14.90;99.90;;;14.50;100.00;101310.88;4185238;28;20021;-76
2023/07/02 06:04:34;;;;;;;35.13;14.43;;;15.00;99.90;;;14.55;100.00;101311.19;4185281;28;20037;-76
2023/07/02 06:06:35;;;;;;;24.55;14.40;;;15.00;99.90;;;14.59;100.00;101309.84;4185031;28;20055;-76
2023/07/02 06:08:36;;;;;;;34.33;15.07;;;15.10;99.90;;;14.64;100.00;101308.34;4167818;28;20025;-76
2023/07/02 06:10:37;;;;;;;30.85;14.07;;;15.10;99.90;;;14.69;100.00;101308.69;4167308;28;20076;-76
2023/07/02 06:12:38;;;;;;;26.52;14.27;;;15.20;99.90;;;14.75;100.00;101312.50;4185230;28;20036;-76
2023/07/02 06:14:39;;;;;;;30.83;15.02;;;15.20;99.90;;;14.75;100.00;101316.00;4150968;28;20116;-76
2023/07/02 06:16:40;;;;;;;27.58;15.15;;;15.30;99.90;;;14.85;100.00;101321.94;4184773;28;20059;-76
2023/07/02 06:18:41;;;;;;;22.83;12.63;;;15.30;99.90;;;14.89;100.00;101317.09;4184974;28;20032;-76
2023/07/02 06:20:42;;;;;;;32.88;14.18;;;15.40;99.90;;;14.98;100.00;101310.78;4184912;28;20041;-76
2023/07/02 06:22:43;;;;;;;28.23;13.80;;;15.40;99.90;;;14.95;100.00;101308.47;4185208;28;20108;-76
2023/07/02 06:24:44;;;;;;;27.27;12.90;;;15.50;99.90;;;15.12;100.00;101318.03;4167469;28;20013;-76
2023/07/02 06:26:45;;;;;;;29.60;13.55;;;15.60;99.90;;;15.15;100.00;101320.34;4167123;28;20476;-76
2023/07/02 06:28:45;;;;;;;22.35;12.90;;;15.60;99.90;;;15.29;100.00;101318.81;4167267;28;20048;-76
2023/07/02 06:30:46;;;;;;;31.00;14.50;;;15.70;99.90;;;15.30;100.00;101320.44;4184857;28;20033;-76
2023/07/02 06:32:47;;;;;;;26.88;12.70;;;15.80;99.90;;;15.28;100.00;101327.78;4185001;28;20603;-76
2023/07/02 06:34:48;;;;;;;27.02;12.80;;;15.80;99.90;;;15.36;100.00;101320.59;4184862;28;20029;-76
2023/07/02 06:36:49;;;;;;;24.70;11.65;;;15.90;99.90;;;15.45;100.00;101327.53;4150793;28;20022;-76
2023/07/02 06:38:50;;;;;;;25.10;12.63;;;15.90;99.90;;;15.54;100.00;101323.03;4150929;28;20026;-76
2023/07/02 06:40:51;;;;;;;25.15;12.30;;;16.00;99.90;;;15.62;100.00;101319.53;4185254;28;20022;-76
2023/07/02 06:42:52;;;;;;;32.85;14.77;;;16.10;99.90;;;15.68;100.00;101324.16;4167334;28;20425;-76
2023/07/02 06:44:52;;;;;;;26.35;11.80;;;16.10;99.90;;;15.61;100.00;101309.88;4167351;28;20026;-76
2023/07/02 06:46:53;;;;;;;22.08;11.23;;;16.20;99.90;;;15.84;100.00;101337.34;4184904;28;20397;-76
2023/07/02 06:48:56;;;;;;;24.90;11.25;;;16.20;99.90;;;15.78;100.00;101327.38;4188153;28;20025;-76
2023/07/02 06:50:57;;;;;;;24.98;11.40;;;16.30;99.90;;;15.82;100.00;101340.19;4170381;28;20057;-76
2023/07/02 06:52:58;;;;;;;25.42;10.98;;;16.30;99.90;;;15.83;100.00;101343.69;4170520;28;20038;-76
2023/07/02 06:54:58;;;;;;;24.92;10.52;;;16.30;99.90;;;15.83;100.00;101336.50;4188130;28;20439;-76
2023/07/02 06:56:59;;;;;;;27.38;11.68;;;16.30;99.90;;;15.91;100.00;101348.94;4187927;28;20092;-76
2023/07/02 06:59:01;;;;;;;26.02;10.40;;;16.40;99.90;;;15.94;100.00;101335.28;4186753;28;20508;-76
2023/07/02 07:01:02;;;;;;;33.75;11.43;;;16.40;99.90;;;16.03;100.00;101328.91;4170016;28;20029;-76
2023/07/02 07:03:04;;;;;;;26.15;10.48;;;16.50;99.90;;;16.25;100.00;101344.03;4170252;28;20029;-76
2023/07/02 07:05:05;;;;;;;29.58;11.55;;;16.50;99.90;;;16.38;100.00;101346.94;4170297;28;20084;-76
2023/07/02 07:07:06;;;;;;;25.10;11.00;;;16.60;99.90;;;16.28;100.00;101349.00;4170256;28;20525;-76
2023/07/02 07:09:07;;;;;;;23.75;10.23;;;16.70;99.90;;;16.22;100.00;101344.38;4187717;28;20033;-76
2023/07/02 07:11:08;;;;;;;24.50;10.13;;;16.70;99.90;;;16.32;100.00;101344.97;4187915;28;20036;-76
2023/07/02 07:13:09;;;;;;;30.05;10.05;;;16.70;99.90;;;16.37;100.00;101350.59;4170094;28;20093;-76
2023/07/02 07:15:10;;;;;;;26.23;11.13;;;16.80;99.90;;;16.40;100.00;101352.06;4187797;28;20028;-76
2023/07/02 07:17:11;;;;;;;25.20;10.32;;;16.90;99.90;;;16.36;100.00;101332.97;4169814;28;20034;-76
2023/07/02 07:19:12;;;;;;;23.85;9.65;;;16.90;99.90;;;16.48;100.00;101346.69;4187467;28;20036;-76
2023/07/02 07:21:13;;;;;;;22.88;9.75;;;16.90;99.90;;;16.41;100.00;101343.06;4169877;28;20598;-76
2023/07/02 07:23:17;;;;;;;28.23;9.55;;;17.00;99.90;;;16.51;100.00;101347.16;4169964;28;20082;-76
2023/07/02 07:25:18;;;;;;;29.35;10.68;;;17.00;99.90;;;16.58;100.00;101344.63;4187644;28;20029;-76
2023/07/02 07:27:19;;;;;;;25.52;8.88;;;17.10;99.90;;;16.69;100.00;101351.34;4170285;28;20049;-76
2023/07/02 07:29:19;;;;;;;26.50;9.95;;;17.10;99.90;;;16.64;100.00;101343.91;4187696;28;20079;-76
2023/07/02 07:31:20;;;;;;;27.88;9.13;;;17.20;99.90;;;16.73;100.00;101349.97;4186286;28;20031;-76
2023/07/02 07:33:21;;;;;;;24.02;9.10;;;17.30;99.90;;;16.78;100.00;101342.28;4169795;28;20049;-76
2023/07/02 07:35:22;;;;;;;26.52;8.65;;;17.30;99.90;;;16.73;100.00;101348.13;4186877;28;20043;-76
2023/07/02 07:37:25;;;;;;;21.95;8.65;;;17.30;99.90;;;16.88;100.00;101359.66;4169774;28;20113;-76
2023/07/02 07:39:26;;;;;;;25.42;9.82;;;17.40;99.90;;;16.89;100.00;101344.50;4187426;28;20032;-76
2023/07/02 07:41:26;;;;;;;25.52;7.90;;;17.40;99.90;;;16.94;100.00;101344.75;4187325;28;20029;-76
2023/07/02 07:43:27;;;;;;;20.30;7.72;;;17.50;99.90;;;17.00;100.00;101347.53;4169512;28;20036;-76
2023/07/02 07:45:28;;;;;;;19.20;8.27;;;17.50;99.90;;;16.92;100.00;101331.63;4187151;28;20040;-76
2023/07/02 07:47:29;;;;;;;20.40;8.73;;;17.60;99.90;;;17.12;100.00;101342.56;4187248;28;20024;-76
2023/07/02 07:49:30;;;;;;;28.00;9.45;;;17.60;99.90;;;17.24;100.00;101341.09;4153252;28;20464;-76
2023/07/02 07:51:31;;;;;;;24.33;9.40;;;17.70;99.90;;;17.35;100.00;101348.63;4169665;28;20021;-76
2023/07/02 07:53:32;;;;;;;19.13;7.00;;;17.80;99.90;;;17.36;100.00;101334.28;4187367;28;20043;-76
2023/07/02 07:55:32;;;;;;;20.25;7.38;;;17.90;99.90;;;17.55;99.16;101340.91;4169347;28;20052;-76
2023/07/02 07:57:37;;;;;;;25.00;8.38;;;18.00;99.90;;;17.66;98.41;101341.25;4169523;28;20028;-76
2023/07/02 07:59:38;;;;;;;15.05;8.07;;;18.10;99.90;;;17.62;93.48;101344.50;4186212;28;20484;-76
2023/07/02 08:01:39;;;;;;;23.00;7.80;;;18.20;99.90;;;17.70;93.29;101347.06;4169365;28;20056;-76
2023/07/02 08:03:40;;;;;;;18.65;7.47;;;18.20;99.90;;;17.62;90.29;101334.63;4169281;28;20022;-76
2023/07/02 08:05:40;;;;;;;18.20;7.18;;;18.20;99.90;;;17.78;92.57;101348.78;4185593;28;20025;-76
2023/07/02 08:07:41;;;;;;;26.40;8.55;;;18.30;99.90;;;17.92;91.07;101339.91;4187044;28;20562;-76
2023/07/02 08:09:42;;;;;;;19.60;8.13;;;18.40;99.90;;;18.05;88.56;101353.38;4169331;28;20037;-76
2023/07/02 08:11:43;;;;;;;20.95;8.35;;;18.50;99.90;;;18.18;87.03;101351.69;4169223;28;20036;-76